Time;durP1;ratioP1;P1;durP2;ratioP2;P2;SDS_P1;SDS_P2;PMS_P1;PMS_P2;Temp;Humidity;BMP_temperature;BMP_pressure;BME280_temperature;BME280_humidity;BME280_pressure;Samples;Min_cycle;Max_cycle;Signal;HPM_P1;HPM_P2
2023/07/22 00:00:41;;;;;;;0.20;0.20;;;;;;;;;;5109905;28;20108;-61
2023/07/22 00:03:07;;;;;;;0.10;0.10;;;;;;;;;;5110134;28;20047;-60
2023/07/22 00:05:33;;;;;;;0.10;0.10;;;;;;;;;;5109755;28;20520;-60
2023/07/22 00:07:58;;;;;;;0.10;0.10;;;;;;;;;;5111122;28;20055;-61
2023/07/22 00:10:24;;;;;;;0.10;0.10;;;;;;;;;;5105800;28;20475;-60
2023/07/22 00:12:49;;;;;;;0.10;0.10;;;;;;;;;;5093452;28;20441;-59
2023/07/22 00:15:15;;;;;;;0.17;0.17;;;;;;;;;;5101297;28;20071;-60
2023/07/22 00:17:41;;;;;;;0.10;0.10;;;;;;;;;;5112651;28;20515;-61
2023/07/22 00:20:10;;;;;;;0.10;0.10;;;;;;;;;;5109552;28;20040;-61
2023/07/22 00:22:36;;;;;;;0.10;0.10;;;;;;;;;;5093157;28;20079;-61
2023/07/22 00:25:02;;;;;;;0.10;0.10;;;;;;;;;;5093181;28;20097;-61
2023/07/22 00:27:27;;;;;;;0.10;0.10;;;;;;;;;;5103974;28;20059;-61
2023/07/22 00:29:53;;;;;;;0.10;0.10;;;;;;;;;;5097751;28;20035;-60
2023/07/22 00:32:19;;;;;;;0.10;0.10;;;;;;;;;;5092694;28;20052;-61
2023/07/22 00:34:44;;;;;;;0.10;0.10;;;;;;;;;;5093146;28;20047;-61
2023/07/22 00:37:10;;;;;;;0.13;0.13;;;;;;;;;;5100442;28;20065;-61
2023/07/22 00:39:36;;;;;;;0.10;0.10;;;;;;;;;;5113540;28;20051;-60
2023/07/22 00:42:01;;;;;;;0.10;0.10;;;;;;;;;;5097831;28;20048;-60
2023/07/22 00:44:27;;;;;;;0.10;0.10;;;;;;;;;;5113245;28;20052;-60
2023/07/22 00:46:55;;;;;;;0.10;0.10;;;;;;;;;;5113061;28;20440;-60
2023/07/22 00:49:21;;;;;;;0.10;0.10;;;;;;;;;;5113399;28;20075;-61
2023/07/22 00:51:47;;;;;;;0.10;0.10;;;;;;;;;;5113183;28;20043;-60
2023/07/22 00:54:12;;;;;;;0.10;0.10;;;;;;;;;;5113587;28;20082;-60
2023/07/22 00:56:39;;;;;;;0.10;0.10;;;;;;;;;;5113550;28;20417;-60
2023/07/22 00:59:05;;;;;;;0.10;0.10;;;;;;;;;;5112844;28;20403;-61
2023/07/22 01:01:31;;;;;;;0.10;0.10;;;;;;;;;;5097318;28;20055;-61
2023/07/22 01:03:57;;;;;;;0.10;0.10;;;;;;;;;;5092925;28;20049;-61
2023/07/22 01:06:24;;;;;;;0.10;0.10;;;;;;;;;;5093127;28;20048;-61
2023/07/22 01:08:50;;;;;;;0.10;0.10;;;;;;;;;;5093083;28;20051;-61
2023/07/22 01:11:16;;;;;;;0.10;0.10;;;;;;;;;;5092011;28;20075;-60
2023/07/22 01:13:42;;;;;;;0.10;0.10;;;;;;;;;;5093076;28;20097;-60
2023/07/22 01:16:07;;;;;;;0.10;0.10;;;;;;;;;;5091844;28;20093;-60
2023/07/22 01:18:33;;;;;;;0.10;0.10;;;;;;;;;;5101916;28;20067;-61
2023/07/22 01:20:59;;;;;;;0.10;0.10;;;;;;;;;;5112270;28;20122;-60
2023/07/22 01:23:25;;;;;;;0.10;0.10;;;;;;;;;;5112259;28;20101;-60
2023/07/22 01:25:51;;;;;;;0.10;0.10;;;;;;;;;;5112356;28;20102;-61
2023/07/22 01:28:17;;;;;;;0.10;0.10;;;;;;;;;;5103201;28;20039;-61
2023/07/22 01:30:42;;;;;;;0.10;0.10;;;;;;;;;;5105278;28;20082;-61
2023/07/22 01:33:08;;;;;;;0.10;0.10;;;;;;;;;;5091426;28;20059;-61
2023/07/22 01:35:33;;;;;;;0.10;0.10;;;;;;;;;;5091791;28;20509;-60
2023/07/22 01:37:59;;;;;;;0.10;0.10;;;;;;;;;;5092118;28;20498;-60
2023/07/22 01:40:25;;;;;;;0.10;0.10;;;;;;;;;;5104272;28;20048;-61
2023/07/22 01:42:50;;;;;;;0.10;0.10;;;;;;;;;;5091963;28;20488;-60
2023/07/22 01:45:16;;;;;;;0.10;0.10;;;;;;;;;;5107710;28;20040;-60
2023/07/22 01:47:41;;;;;;;0.10;0.10;;;;;;;;;;5111036;28;20138;-60
2023/07/22 01:50:08;;;;;;;0.10;0.10;;;;;;;;;;5111282;28;20134;-60
2023/07/22 01:52:34;;;;;;;0.10;0.10;;;;;;;;;;5112101;28;20043;-60
2023/07/22 01:54:59;;;;;;;0.30;0.30;;;;;;;;;;5111772;28;20050;-61
2023/07/22 01:57:25;;;;;;;0.17;0.17;;;;;;;;;;5111390;28;20101;-60
2023/07/22 01:59:50;;;;;;;0.10;0.10;;;;;;;;;;5111358;28;20055;-60
2023/07/22 02:02:16;;;;;;;0.10;0.10;;;;;;;;;;5111132;28;20472;-60
2023/07/22 02:04:41;;;;;;;0.10;0.10;;;;;;;;;;5112347;28;20047;-60
2023/07/22 02:07:07;;;;;;;0.10;0.10;;;;;;;;;;5112438;28;20663;-60
2023/07/22 02:09:33;;;;;;;0.10;0.10;;;;;;;;;;5112369;28;20051;-61
2023/07/22 02:11:58;;;;;;;0.10;0.10;;;;;;;;;;5092215;28;20519;-61
2023/07/22 02:14:24;;;;;;;0.10;0.10;;;;;;;;;;5091962;28;20051;-59
2023/07/22 02:16:49;;;;;;;0.10;0.10;;;;;;;;;;5091490;28;20048;-59
2023/07/22 02:19:16;;;;;;;0.10;0.10;;;;;;;;;;5092375;28;20052;-60
2023/07/22 02:21:41;;;;;;;0.10;0.10;;;;;;;;;;5109426;28;20090;-60
2023/07/22 02:24:07;;;;;;;0.10;0.10;;;;;;;;;;5112262;28;20385;-60
2023/07/22 02:26:33;;;;;;;0.10;0.10;;;;;;;;;;5111772;28;20069;-60
2023/07/22 02:28:59;;;;;;;0.13;0.13;;;;;;;;;;5111884;28;20403;-61
2023/07/22 02:31:25;;;;;;;0.10;0.10;;;;;;;;;;5112247;28;20047;-61
2023/07/22 02:33:51;;;;;;;0.10;0.10;;;;;;;;;;5112324;28;20056;-60
2023/07/22 02:36:16;;;;;;;0.10;0.10;;;;;;;;;;5112000;28;20050;-61
2023/07/22 02:38:42;;;;;;;0.10;0.10;;;;;;;;;;5111615;28;20403;-60
2023/07/22 02:41:07;;;;;;;0.10;0.10;;;;;;;;;;5111017;28;20051;-61
2023/07/22 02:43:34;;;;;;;0.10;0.10;;;;;;;;;;5111970;28;20058;-60
2023/07/22 02:46:01;;;;;;;0.10;0.10;;;;;;;;;;5111100;28;20086;-43
2023/07/22 02:48:27;;;;;;;0.10;0.10;;;;;;;;;;5111637;28;20188;-44
2023/07/22 02:50:53;;;;;;;0.10;0.10;;;;;;;;;;5100840;28;20044;-44
2023/07/22 02:53:19;;;;;;;0.10;0.10;;;;;;;;;;5090709;28;20474;-47
2023/07/22 02:55:46;;;;;;;0.10;0.10;;;;;;;;;;5091146;28;20044;-43
2023/07/22 02:58:11;;;;;;;0.10;0.10;;;;;;;;;;5091063;28;20051;-43
2023/07/22 03:00:37;;;;;;;0.10;0.10;;;;;;;;;;5091074;28;20052;-44
2023/07/22 03:03:04;;;;;;;0.10;0.10;;;;;;;;;;5098218;28;20051;-46
2023/07/22 03:05:31;;;;;;;0.10;0.10;;;;;;;;;;5111581;28;20119;-43
2023/07/22 03:07:56;;;;;;;0.10;0.10;;;;;;;;;;5111545;28;20052;-43
2023/07/22 03:10:22;;;;;;;0.10;0.10;;;;;;;;;;5110687;28;20061;-42
2023/07/22 03:12:48;;;;;;;0.10;0.10;;;;;;;;;;5111304;28;20048;-44
2023/07/22 03:15:13;;;;;;;0.10;0.10;;;;;;;;;;5111371;28;20051;-42
2023/07/22 03:17:41;;;;;;;0.10;0.10;;;;;;;;;;5111062;28;20056;-44
2023/07/22 03:20:13;;;;;;;0.10;0.10;;;;;;;;;;5110874;28;20503;-42
2023/07/22 03:22:39;;;;;;;0.10;0.10;;;;;;;;;;5110470;28;20435;-46
2023/07/22 03:25:08;;;;;;;0.10;0.10;;;;;;;;;;5110628;28;20075;-46
2023/07/22 03:27:33;;;;;;;0.10;0.10;;;;;;;;;;5102219;28;20047;-45
2023/07/22 03:29:59;;;;;;;0.10;0.10;;;;;;;;;;5113134;28;20666;-41
2023/07/22 03:32:24;;;;;;;0.10;0.10;;;;;;;;;;5110447;28;20051;-42
2023/07/22 03:34:50;;;;;;;0.10;0.10;;;;;;;;;;5090777;28;20505;-43
2023/07/22 03:37:15;;;;;;;0.10;0.10;;;;;;;;;;5090913;28;20048;-43
2023/07/22 03:39:41;;;;;;;0.10;0.10;;;;;;;;;;5090822;28;20052;-43
2023/07/22 03:42:06;;;;;;;0.10;0.10;;;;;;;;;;5112843;28;20050;-41
2023/07/22 03:44:32;;;;;;;0.10;0.10;;;;;;;;;;5114184;28;20409;-44
2023/07/22 03:46:59;;;;;;;0.10;0.10;;;;;;;;;;5113592;28;20534;-46
2023/07/22 03:49:25;;;;;;;0.10;0.10;;;;;;;;;;5114003;28;20130;-44
2023/07/22 03:51:50;;;;;;;0.10;0.10;;;;;;;;;;5095620;28;20062;-44
2023/07/22 03:54:16;;;;;;;0.10;0.10;;;;;;;;;;5094111;28;20483;-44
2023/07/22 03:56:41;;;;;;;0.10;0.10;;;;;;;;;;5093652;28;20043;-46
2023/07/22 03:59:07;;;;;;;0.20;0.20;;;;;;;;;;5093868;28;20090;-44
2023/07/22 04:01:32;;;;;;;0.10;0.10;;;;;;;;;;5093859;28;20135;-43
2023/07/22 04:03:58;;;;;;;0.10;0.10;;;;;;;;;;5093869;28;20419;-42
2023/07/22 04:06:23;;;;;;;0.10;0.10;;;;;;;;;;5113892;28;20070;-45
2023/07/22 04:08:49;;;;;;;0.10;0.10;;;;;;;;;;5114216;28;20077;-44
2023/07/22 04:11:15;;;;;;;0.10;0.10;;;;;;;;;;5113457;28;20050;-44
2023/07/22 04:13:40;;;;;;;0.10;0.10;;;;;;;;;;5113820;28;20052;-45
2023/07/22 04:16:06;;;;;;;0.10;0.10;;;;;;;;;;5113666;28;20075;-42
2023/07/22 04:18:34;;;;;;;0.10;0.10;;;;;;;;;;5114344;28;20043;-43
2023/07/22 04:21:00;;;;;;;0.10;0.10;;;;;;;;;;5113596;28;20048;-44
2023/07/22 04:23:26;;;;;;;0.10;0.10;;;;;;;;;;5113615;28;20063;-42
2023/07/22 04:25:51;;;;;;;0.10;0.10;;;;;;;;;;5109414;27;20135;-44
2023/07/22 04:28:17;;;;;;;0.10;0.10;;;;;;;;;;5092913;28;20122;-43
2023/07/22 04:30:43;;;;;;;0.10;0.10;;;;;;;;;;5101967;28;20044;-44
2023/07/22 04:33:10;;;;;;;0.10;0.10;;;;;;;;;;5113808;28;20039;-43
2023/07/22 04:35:37;;;;;;;0.10;0.10;;;;;;;;;;5113434;28;20165;-42
2023/07/22 04:38:03;;;;;;;0.10;0.10;;;;;;;;;;5113988;28;20415;-45
2023/07/22 04:40:30;;;;;;;0.10;0.10;;;;;;;;;;5106527;28;20729;-42
2023/07/22 04:42:56;;;;;;;0.10;0.10;;;;;;;;;;5093488;28;20080;-42
2023/07/22 04:45:23;;;;;;;0.10;0.10;;;;;;;;;;5108297;28;20419;-44
2023/07/22 04:47:50;;;;;;;0.10;0.10;;;;;;;;;;5113291;28;20043;-44
2023/07/22 04:50:16;;;;;;;0.10;0.10;;;;;;;;;;5112851;28;20051;-43
2023/07/22 04:52:42;;;;;;;0.10;0.10;;;;;;;;;;5112632;28;20104;-43
2023/07/22 04:55:09;;;;;;;0.10;0.10;;;;;;;;;;5113598;28;20052;-44
2023/07/22 04:57:35;;;;;;;0.10;0.10;;;;;;;;;;5113474;28;20050;-45
2023/07/22 05:00:03;;;;;;;0.10;0.10;;;;;;;;;;5113050;28;20462;-46
2023/07/22 05:02:30;;;;;;;0.10;0.10;;;;;;;;;;5112978;28;20044;-44
2023/07/22 05:04:56;;;;;;;0.10;0.10;;;;;;;;;;5113458;28;20056;-44
2023/07/22 05:07:21;;;;;;;0.10;0.10;;;;;;;;;;5112589;28;20062;-45
2023/07/22 05:09:47;;;;;;;0.10;0.10;;;;;;;;;;5112931;28;20082;-42
2023/07/22 05:12:12;;;;;;;0.10;0.10;;;;;;;;;;5113004;28;20087;-46
2023/07/22 05:14:38;;;;;;;0.10;0.10;;;;;;;;;;5113168;28;20175;-43
2023/07/22 05:17:04;;;;;;;0.10;0.10;;;;;;;;;;5112815;28;20097;-43
2023/07/22 05:19:29;;;;;;;0.10;0.10;;;;;;;;;;5113087;28;20067;-45
2023/07/22 05:21:55;;;;;;;0.10;0.10;;;;;;;;;;5112713;28;20494;-45
2023/07/22 05:24:21;;;;;;;0.10;0.10;;;;;;;;;;5113208;28;20484;-46
2023/07/22 05:26:46;;;;;;;0.10;0.10;;;;;;;;;;5113122;28;20043;-45
2023/07/22 05:29:32;;;;;;;0.10;0.10;;;;;;;;;;5111911;28;20039;-43
2023/07/22 05:31:57;;;;;;;0.10;0.10;;;;;;;;;;5111840;28;20047;-46
2023/07/22 05:34:23;;;;;;;0.10;0.10;;;;;;;;;;5111913;28;20047;-42
2023/07/22 05:36:48;;;;;;;0.10;0.10;;;;;;;;;;5111738;28;20757;-43
2023/07/22 05:39:17;;;;;;;0.10;0.10;;;;;;;;;;5111726;28;20491;-43
2023/07/22 05:41:43;;;;;;;0.10;0.10;;;;;;;;;;5094209;28;20168;-43
2023/07/22 05:44:08;;;;;;;0.10;0.10;;;;;;;;;;5091734;28;20143;-46
2023/07/22 05:46:34;;;;;;;0.10;0.10;;;;;;;;;;5101860;28;20104;-44
2023/07/22 05:48:59;;;;;;;0.13;0.13;;;;;;;;;;5111997;28;20055;-42
2023/07/22 05:51:25;;;;;;;0.10;0.10;;;;;;;;;;5104921;28;20096;-43
2023/07/22 05:53:50;;;;;;;0.10;0.10;;;;;;;;;;5111569;28;20177;-43
2023/07/22 05:56:16;;;;;;;0.10;0.10;;;;;;;;;;5111938;28;20051;-42
2023/07/22 05:58:41;;;;;;;0.10;0.10;;;;;;;;;;5111738;28;20404;-46
2023/07/22 06:01:07;;;;;;;0.10;0.10;;;;;;;;;;5099065;28;20307;-45
2023/07/22 06:03:33;;;;;;;0.10;0.10;;;;;;;;;;5091066;28;20051;-43
2023/07/22 06:05:58;;;;;;;0.10;0.10;;;;;;;;;;5090943;28;20443;-42
2023/07/22 06:08:25;;;;;;;0.10;0.10;;;;;;;;;;5097669;28;20094;-43
2023/07/22 06:10:51;;;;;;;0.10;0.10;;;;;;;;;;5110528;28;20047;-43
2023/07/22 06:13:17;;;;;;;0.10;0.10;;;;;;;;;;5111407;28;20055;-44
2023/07/22 06:15:42;;;;;;;0.10;0.10;;;;;;;;;;5111260;28;20468;-43
2023/07/22 06:18:08;;;;;;;0.10;0.10;;;;;;;;;;5111686;28;20412;-41
2023/07/22 06:20:34;;;;;;;0.10;0.10;;;;;;;;;;5111364;28;20039;-44
2023/07/22 06:23:01;;;;;;;0.10;0.10;;;;;;;;;;5111440;28;20051;-44
2023/07/22 06:25:26;;;;;;;0.10;0.10;;;;;;;;;;5103078;27;20055;-45
2023/07/22 06:27:54;;;;;;;0.10;0.10;;;;;;;;;;5110647;28;20058;-44
2023/07/22 06:30:19;;;;;;;0.10;0.10;;;;;;;;;;5111192;28;20043;-44
2023/07/22 06:32:45;;;;;;;0.10;0.10;;;;;;;;;;5111512;28;20043;-43
2023/07/22 06:35:10;;;;;;;0.10;0.10;;;;;;;;;;5111635;28;20401;-43
2023/07/22 06:37:36;;;;;;;0.10;0.10;;;;;;;;;;5111174;28;20051;-41
2023/07/22 06:40:03;;;;;;;0.10;0.10;;;;;;;;;;5110221;28;20055;-41
2023/07/22 06:42:29;;;;;;;0.25;0.25;;;;;;;;;;5111348;28;20048;-44
2023/07/22 06:44:55;;;;;;;0.10;0.10;;;;;;;;;;5111305;28;20065;-43
2023/07/22 06:47:20;;;;;;;0.10;0.10;;;;;;;;;;5110664;28;20294;-43
2023/07/22 06:49:46;;;;;;;0.10;0.10;;;;;;;;;;5109722;28;20400;-44
2023/07/22 06:52:13;;;;;;;0.13;0.13;;;;;;;;;;5090824;28;20490;-45
2023/07/22 06:54:38;;;;;;;0.20;0.20;;;;;;;;;;5110658;28;20139;-46
2023/07/22 06:57:05;;;;;;;0.10;0.10;;;;;;;;;;5111498;28;20601;-45
2023/07/22 06:59:31;;;;;;;0.10;0.10;;;;;;;;;;5111792;28;20074;-46
2023/07/22 07:01:57;;;;;;;0.10;0.10;;;;;;;;;;5092132;28;20139;-45
2023/07/22 07:04:22;;;;;;;0.10;0.10;;;;;;;;;;5091223;28;20044;-43
2023/07/22 07:06:49;;;;;;;0.10;0.10;;;;;;;;;;5091257;28;20070;-43
2023/07/22 07:09:15;;;;;;;0.10;0.10;;;;;;;;;;5090581;28;20389;-44
2023/07/22 07:11:40;;;;;;;0.10;0.10;;;;;;;;;;5108885;28;20082;-45
2023/07/22 07:14:06;;;;;;;0.10;0.10;;;;;;;;;;5111051;28;20067;-44
2023/07/22 07:16:32;;;;;;;0.10;0.10;;;;;;;;;;5110219;28;20054;-41
2023/07/22 07:18:59;;;;;;;0.10;0.10;;;;;;;;;;5111396;28;20062;-42
2023/07/22 07:21:24;;;;;;;0.10;0.10;;;;;;;;;;5110883;28;20070;-44
2023/07/22 07:23:51;;;;;;;0.10;0.10;;;;;;;;;;5107319;28;20469;-43
2023/07/22 07:26:16;;;;;;;0.20;0.20;;;;;;;;;;5106756;28;20143;-45
2023/07/22 07:28:42;;;;;;;0.10;0.10;;;;;;;;;;5110528;28;20047;-42
2023/07/22 07:31:08;;;;;;;0.10;0.10;;;;;;;;;;5110490;28;20056;-44
2023/07/22 07:33:34;;;;;;;0.10;0.10;;;;;;;;;;5111051;28;20525;-43
2023/07/22 07:35:59;;;;;;;0.10;0.10;;;;;;;;;;5111330;28;20047;-43
2023/07/22 07:38:25;;;;;;;0.30;0.25;;;;;;;;;;5111306;28;20447;-43
2023/07/22 07:40:51;;;;;;;0.20;0.20;;;;;;;;;;5099925;28;20071;-43
2023/07/22 07:43:17;;;;;;;0.20;0.20;;;;;;;;;;5089886;28;20504;-43
2023/07/22 07:45:42;;;;;;;0.20;0.20;;;;;;;;;;5089322;28;20048;-42
2023/07/22 07:48:08;;;;;;;0.20;0.20;;;;;;;;;;5089976;28;20040;-42
2023/07/22 07:50:35;;;;;;;0.10;0.10;;;;;;;;;;5103753;28;20446;-47
2023/07/22 07:53:00;;;;;;;0.10;0.10;;;;;;;;;;5110100;28;20055;-46
2023/07/22 07:55:26;;;;;;;0.20;0.20;;;;;;;;;;5109816;28;20048;-46
2023/07/22 07:57:51;;;;;;;0.10;0.10;;;;;;;;;;5110378;28;20044;-44
2023/07/22 08:00:17;;;;;;;0.10;0.10;;;;;;;;;;5104732;28;20044;-45
2023/07/22 08:02:42;;;;;;;0.10;0.10;;;;;;;;;;5089814;28;20048;-44
2023/07/22 08:05:08;;;;;;;0.10;0.10;;;;;;;;;;5090013;28;20684;-42
2023/07/22 08:07:34;;;;;;;0.10;0.10;;;;;;;;;;5089968;28;20051;-43
2023/07/22 08:10:00;;;;;;;0.10;0.10;;;;;;;;;;5102751;28;20097;-41
2023/07/22 08:12:26;;;;;;;0.10;0.10;;;;;;;;;;5110112;28;20079;-45
2023/07/22 08:14:52;;;;;;;0.10;0.10;;;;;;;;;;5110052;28;20054;-43
2023/07/22 08:17:18;;;;;;;0.10;0.10;;;;;;;;;;5108290;28;20047;-42
2023/07/22 08:19:44;;;;;;;0.10;0.10;;;;;;;;;;5109414;28;20089;-43
2023/07/22 08:22:09;;;;;;;0.10;0.10;;;;;;;;;;5089691;28;20097;-42
2023/07/22 08:24:35;;;;;;;0.10;0.10;;;;;;;;;;5100079;28;20052;-42
2023/07/22 08:27:00;;;;;;;0.10;0.10;;;;;;;;;;5110418;28;20051;-41
2023/07/22 08:29:26;;;;;;;0.10;0.10;;;;;;;;;;5112689;28;20408;-44
2023/07/22 08:31:51;;;;;;;0.10;0.10;;;;;;;;;;5113227;28;20051;-41
2023/07/22 08:34:17;;;;;;;0.10;0.10;;;;;;;;;;5113795;28;20369;-43
2023/07/22 08:36:42;;;;;;;0.10;0.10;;;;;;;;;;5113960;28;20539;-41
2023/07/22 08:39:08;;;;;;;0.10;0.10;;;;;;;;;;5113976;28;20078;-41
2023/07/22 08:41:34;;;;;;;0.10;0.10;;;;;;;;;;5106884;28;20043;-42
2023/07/22 08:44:00;;;;;;;0.10;0.10;;;;;;;;;;5093234;28;20043;-41
2023/07/22 08:46:29;;;;;;;0.10;0.10;;;;;;;;;;5092978;28;20546;-41
2023/07/22 08:48:56;;;;;;;0.10;0.10;;;;;;;;;;5093193;28;20070;-42
2023/07/22 08:51:23;;;;;;;0.10;0.10;;;;;;;;;;5106381;28;20305;-43
2023/07/22 08:53:49;;;;;;;0.10;0.10;;;;;;;;;;5113316;28;20047;-42
2023/07/22 08:56:35;;;;;;;0.10;0.10;;;;;;;;;;5112083;28;20101;-40
2023/07/22 08:59:01;;;;;;;0.10;0.10;;;;;;;;;;5113520;28;20039;-44
2023/07/22 09:01:27;;;;;;;0.10;0.10;;;;;;;;;;5098137;28;20381;-43
2023/07/22 09:03:52;;;;;;;0.10;0.10;;;;;;;;;;5093203;28;20066;-43
2023/07/22 09:06:19;;;;;;;0.10;0.10;;;;;;;;;;5093372;28;20048;-42
2023/07/22 09:08:45;;;;;;;0.20;0.20;;;;;;;;;;5092590;28;20051;-43
2023/07/22 09:11:10;;;;;;;0.10;0.10;;;;;;;;;;5092170;28;20517;-43
2023/07/22 09:13:38;;;;;;;0.10;0.10;;;;;;;;;;5092875;28;20090;-40
2023/07/22 09:16:04;;;;;;;0.10;0.10;;;;;;;;;;5092333;28;20044;-41
2023/07/22 09:18:32;;;;;;;0.10;0.10;;;;;;;;;;5092983;28;20044;-43
2023/07/22 09:20:57;;;;;;;0.10;0.10;;;;;;;;;;5092497;28;20048;-42
2023/07/22 09:23:38;;;;;;;0.10;0.10;;;;;;;;;;5092049;28;20094;-42
2023/07/22 09:26:19;;;;;;;0.10;0.10;;;;;;;;;;5098604;28;20070;-44
2023/07/22 09:28:52;;;;;;;0.10;0.10;;;;;;;;;;5113063;28;20047;-41
2023/07/22 09:31:18;;;;;;;0.10;0.10;;;;;;;;;;5112132;28;20082;-41
2023/07/22 09:33:44;;;;;;;0.10;0.10;;;;;;;;;;5112303;28;20073;-41
2023/07/22 09:36:10;;;;;;;0.10;0.10;;;;;;;;;;5112807;28;20504;-42
2023/07/22 09:38:35;;;;;;;0.10;0.10;;;;;;;;;;5112701;28;20039;-43
2023/07/22 09:41:01;;;;;;;0.10;0.10;;;;;;;;;;5100890;28;20051;-43
2023/07/22 09:43:26;;;;;;;0.10;0.10;;;;;;;;;;5102195;28;20059;-42
2023/07/22 09:45:53;;;;;;;0.10;0.10;;;;;;;;;;5112013;28;20100;-43
2023/07/22 09:48:20;;;;;;;0.10;0.10;;;;;;;;;;5111992;28;20059;-44
2023/07/22 09:50:55;;;;;;;0.10;0.10;;;;;;;;;;5111821;28;20488;-41
2023/07/22 09:53:21;;;;;;;0.10;0.10;;;;;;;;;;5111885;28;20047;-43
2023/07/22 09:55:47;;;;;;;0.10;0.10;;;;;;;;;;5111629;28;20044;-42
2023/07/22 09:58:14;;;;;;;0.20;0.20;;;;;;;;;;5111415;28;20138;-41
2023/07/22 10:00:41;;;;;;;0.10;0.10;;;;;;;;;;5110354;28;20120;-42
2023/07/22 10:03:09;;;;;;;0.10;0.10;;;;;;;;;;5111960;28;20044;-41
2023/07/22 10:05:36;;;;;;;0.10;0.10;;;;;;;;;;5111957;28;20138;-43
2023/07/22 10:08:02;;;;;;;0.10;0.10;;;;;;;;;;5111678;28;20078;-41
2023/07/22 10:10:32;;;;;;;0.10;0.10;;;;;;;;;;5110984;28;20090;-44
2023/07/22 10:12:58;;;;;;;0.10;0.10;;;;;;;;;;5111975;28;20097;-43
2023/07/22 10:15:25;;;;;;;0.10;0.10;;;;;;;;;;5111565;28;20051;-42
2023/07/22 10:17:50;;;;;;;0.20;0.20;;;;;;;;;;5111855;28;20058;-42
2023/07/22 10:20:16;;;;;;;0.10;0.10;;;;;;;;;;5111565;28;20047;-42
2023/07/22 10:22:43;;;;;;;0.10;0.10;;;;;;;;;;5111578;27;20404;-42
2023/07/22 10:25:10;;;;;;;0.10;0.10;;;;;;;;;;5126545;28;20047;-42
2023/07/22 10:27:35;;;;;;;0.10;0.10;;;;;;;;;;5113694;28;20075;-43
2023/07/22 10:30:02;;;;;;;0.10;0.10;;;;;;;;;;5110988;28;20055;-43
2023/07/22 10:32:36;;;;;;;0.10;0.10;;;;;;;;;;5111413;28;20074;-42
2023/07/22 10:35:02;;;;;;;0.10;0.10;;;;;;;;;;5111293;28;20516;-44
2023/07/22 10:37:32;;;;;;;0.10;0.10;;;;;;;;;;5111977;28;20086;-41
2023/07/22 10:39:59;;;;;;;0.10;0.10;;;;;;;;;;5109082;28;20074;-43
2023/07/22 10:42:25;;;;;;;0.10;0.10;;;;;;;;;;5091359;28;20055;-42
2023/07/22 10:44:51;;;;;;;0.10;0.10;;;;;;;;;;5098722;28;20736;-43
2023/07/22 10:47:34;;;;;;;0.10;0.10;;;;;;;;;;5111655;28;20047;-43
2023/07/22 10:50:07;;;;;;;0.20;0.20;;;;;;;;;;5110752;28;20446;-41
2023/07/22 10:52:42;;;;;;;0.10;0.10;;;;;;;;;;5111081;28;20469;-41
2023/07/22 10:55:22;;;;;;;0.10;0.10;;;;;;;;;;5111301;28;20598;-42
2023/07/22 10:57:50;;;;;;;0.10;0.10;;;;;;;;;;5111615;28;20052;-42
2023/07/22 11:00:21;;;;;;;0.10;0.10;;;;;;;;;;5109901;28;20060;-43
2023/07/22 11:03:07;;;;;;;0.10;0.10;;;;;;;;;;5110928;28;20097;-42
2023/07/22 11:05:49;;;;;;;0.10;0.10;;;;;;;;;;5110361;28;20052;-41
2023/07/22 11:08:15;;;;;;;0.10;0.10;;;;;;;;;;5110660;28;20039;-41
2023/07/22 11:10:55;;;;;;;0.10;0.10;;;;;;;;;;5101117;28;20143;-43
2023/07/22 11:13:26;;;;;;;0.10;0.10;;;;;;;;;;5090468;28;20063;-43
2023/07/22 11:15:52;;;;;;;0.20;0.20;;;;;;;;;;5089809;28;20056;-40
2023/07/22 11:18:18;;;;;;;0.10;0.10;;;;;;;;;;5090368;28;20415;-41
2023/07/22 11:20:43;;;;;;;0.10;0.10;;;;;;;;;;5090133;28;20048;-42
2023/07/22 11:23:09;;;;;;;0.10;0.10;;;;;;;;;;5103084;28;20069;-41
2023/07/22 11:25:34;;;;;;;0.10;0.10;;;;;;;;;;5113972;28;20052;-41
2023/07/22 11:28:00;;;;;;;0.10;0.10;;;;;;;;;;5130830;28;20479;-42
2023/07/22 11:30:26;;;;;;;0.10;0.10;;;;;;;;;;5117818;28;20100;-42
2023/07/22 11:32:52;;;;;;;0.10;0.10;;;;;;;;;;5091018;28;20560;-45
2023/07/22 11:35:19;;;;;;;0.15;0.15;;;;;;;;;;5108995;28;20052;-41
2023/07/22 11:37:44;;;;;;;0.10;0.10;;;;;;;;;;5109903;28;20048;-42
2023/07/22 11:40:13;;;;;;;0.10;0.10;;;;;;;;;;5109397;28;20453;-42
2023/07/22 11:42:39;;;;;;;0.10;0.10;;;;;;;;;;5109948;28;20395;-42
2023/07/22 11:45:05;;;;;;;0.10;0.10;;;;;;;;;;5110054;28;20048;-42
2023/07/22 11:47:31;;;;;;;0.10;0.10;;;;;;;;;;5109396;28;20048;-41
2023/07/22 11:49:57;;;;;;;0.10;0.10;;;;;;;;;;5110553;28;20048;-43
2023/07/22 11:52:23;;;;;;;0.10;0.10;;;;;;;;;;5111104;28;20063;-41
2023/07/22 11:54:49;;;;;;;0.10;0.10;;;;;;;;;;5111129;28;20083;-43
2023/07/22 11:57:15;;;;;;;0.10;0.10;;;;;;;;;;5110237;28;20514;-43
2023/07/22 11:59:45;;;;;;;0.10;0.10;;;;;;;;;;5110291;28;20124;-42
2023/07/22 12:02:13;;;;;;;0.10;0.10;;;;;;;;;;5110941;28;20122;-42
2023/07/22 12:04:39;;;;;;;0.10;0.10;;;;;;;;;;5114370;28;20081;-43
2023/07/22 12:07:05;;;;;;;0.10;0.10;;;;;;;;;;5114571;28;20051;-43
2023/07/22 12:09:30;;;;;;;0.10;0.10;;;;;;;;;;5113604;28;20178;-44
2023/07/22 12:11:58;;;;;;;0.10;0.10;;;;;;;;;;5094310;28;20101;-41
2023/07/22 12:14:24;;;;;;;0.10;0.10;;;;;;;;;;5093920;28;20072;-42
2023/07/22 12:16:52;;;;;;;0.10;0.10;;;;;;;;;;5093427;28;20048;-42
2023/07/22 12:19:18;;;;;;;0.10;0.10;;;;;;;;;;5093842;28;20048;-42
2023/07/22 12:21:43;;;;;;;0.10;0.10;;;;;;;;;;5096235;27;20059;-41
2023/07/22 12:24:13;;;;;;;0.10;0.10;;;;;;;;;;5120190;28;20412;-42
2023/07/22 12:26:38;;;;;;;0.10;0.10;;;;;;;;;;5134463;28;20047;-42
2023/07/22 12:29:04;;;;;;;0.10;0.10;;;;;;;;;;5134362;28;20275;-41
2023/07/22 12:31:29;;;;;;;0.10;0.10;;;;;;;;;;5102832;28;20052;-43
2023/07/22 12:33:56;;;;;;;0.20;0.20;;;;;;;;;;5092207;28;20059;-43
2023/07/22 12:36:21;;;;;;;0.10;0.10;;;;;;;;;;5108108;28;20496;-43
2023/07/22 12:38:47;;;;;;;0.10;0.10;;;;;;;;;;5113084;28;20048;-41
2023/07/22 12:41:12;;;;;;;0.10;0.10;;;;;;;;;;5112070;28;20128;-41
2023/07/22 12:43:38;;;;;;;0.10;0.10;;;;;;;;;;5113532;28;20392;-41
2023/07/22 12:46:03;;;;;;;0.10;0.10;;;;;;;;;;5112888;28;20066;-41
2023/07/22 12:48:30;;;;;;;0.10;0.10;;;;;;;;;;5112621;28;20119;-42
2023/07/22 12:50:55;;;;;;;0.10;0.10;;;;;;;;;;5112572;28;20048;-41
2023/07/22 12:53:21;;;;;;;0.10;0.10;;;;;;;;;;5113293;28;20051;-42
2023/07/22 12:55:46;;;;;;;0.10;0.10;;;;;;;;;;5113145;28;20481;-43
2023/07/22 12:58:13;;;;;;;0.10;0.10;;;;;;;;;;5112654;28;20408;-44
2023/07/22 13:00:38;;;;;;;0.10;0.10;;;;;;;;;;5110968;28;20056;-42
2023/07/22 13:03:04;;;;;;;0.10;0.10;;;;;;;;;;5112882;28;20675;-42
2023/07/22 13:05:29;;;;;;;0.10;0.10;;;;;;;;;;5112529;28;20070;-42
2023/07/22 13:07:55;;;;;;;0.10;0.10;;;;;;;;;;5112907;28;20048;-41
2023/07/22 13:10:23;;;;;;;0.10;0.10;;;;;;;;;;5105990;28;20187;-42
2023/07/22 13:12:48;;;;;;;0.10;0.10;;;;;;;;;;5092867;28;20052;-40
2023/07/22 13:15:14;;;;;;;0.10;0.10;;;;;;;;;;5091907;28;20044;-42
2023/07/22 13:17:39;;;;;;;0.10;0.10;;;;;;;;;;5092488;28;20051;-43
2023/07/22 13:20:08;;;;;;;0.10;0.10;;;;;;;;;;5092687;28;20048;-42
2023/07/22 13:22:35;;;;;;;0.10;0.10;;;;;;;;;;5102684;28;20088;-42
2023/07/22 13:25:00;;;;;;;0.10;0.10;;;;;;;;;;5126578;28;20077;-42
2023/07/22 13:27:26;;;;;;;0.10;0.10;;;;;;;;;;5133592;28;20157;-41
2023/07/22 13:29:51;;;;;;;0.10;0.10;;;;;;;;;;5129730;28;20050;-42
2023/07/22 13:32:17;;;;;;;0.10;0.10;;;;;;;;;;5092534;28;20044;-41
2023/07/22 13:34:42;;;;;;;0.10;0.10;;;;;;;;;;5092471;28;20112;-44
2023/07/22 13:37:08;;;;;;;0.10;0.10;;;;;;;;;;5099299;28;20044;-42
2023/07/22 13:39:34;;;;;;;0.10;0.10;;;;;;;;;;5112249;28;20484;-45
2023/07/22 13:41:59;;;;;;;0.10;0.10;;;;;;;;;;5112139;28;20407;-43
2023/07/22 13:44:25;;;;;;;0.10;0.10;;;;;;;;;;5112848;28;20040;-42
2023/07/22 13:46:50;;;;;;;0.30;0.30;;;;;;;;;;5112000;28;20381;-44
2023/07/22 13:49:17;;;;;;;0.10;0.10;;;;;;;;;;5112207;28;20044;-42
2023/07/22 13:51:43;;;;;;;0.10;0.10;;;;;;;;;;5111582;28;20047;-43
2023/07/22 13:54:08;;;;;;;0.10;0.10;;;;;;;;;;5112752;28;20476;-43
2023/07/22 13:56:34;;;;;;;0.10;0.10;;;;;;;;;;5112133;28;20056;-41
2023/07/22 13:59:01;;;;;;;0.10;0.10;;;;;;;;;;5112232;28;20081;-42
2023/07/22 14:01:26;;;;;;;0.10;0.10;;;;;;;;;;5110847;28;20082;-43
2023/07/22 14:03:52;;;;;;;0.10;0.10;;;;;;;;;;5111960;28;20051;-42
2023/07/22 14:06:18;;;;;;;0.10;0.10;;;;;;;;;;5111583;28;20138;-42
2023/07/22 14:08:43;;;;;;;0.10;0.10;;;;;;;;;;5111654;28;20051;-41
2023/07/22 14:11:09;;;;;;;0.10;0.10;;;;;;;;;;5098450;28;20144;-44
2023/07/22 14:13:34;;;;;;;0.10;0.10;;;;;;;;;;5091396;28;20172;-42
2023/07/22 14:16:01;;;;;;;0.13;0.13;;;;;;;;;;5091200;28;20070;-45
2023/07/22 14:18:45;;;;;;;0.10;0.10;;;;;;;;;;5091335;28;20048;-42
2023/07/22 14:21:11;;;;;;;0.10;0.10;;;;;;;;;;5103338;28;20054;-43
2023/07/22 14:23:37;;;;;;;0.10;0.10;;;;;;;;;;5111868;28;20052;-44
2023/07/22 14:26:02;;;;;;;0.10;0.10;;;;;;;;;;5110365;28;20057;-42
2023/07/22 14:28:28;;;;;;;0.10;0.10;;;;;;;;;;5111416;28;20047;-44
2023/07/22 14:30:53;;;;;;;0.10;0.10;;;;;;;;;;5111086;28;20048;-41
2023/07/22 14:33:19;;;;;;;0.10;0.10;;;;;;;;;;5111489;28;20054;-45
2023/07/22 14:35:44;;;;;;;0.10;0.10;;;;;;;;;;5111385;28;20043;-42
2023/07/22 14:38:11;;;;;;;0.10;0.10;;;;;;;;;;5111351;28;20052;-42